Archival Weather

Fukuoka

Fukuoka, Japan (RJFF)

Report from: Monday, August 15, 2022 5:00 AM JST
Current time: Saturday, February 24, 2024 11:59 PM JST

Current weather – Weather history – Daily summaries
Weather forecast

Temperature28.0°C (82.4°F)
Heat index32.7°C (90.9°F)
Dew point25.0°C (77.0°F)
Winds 13 kts (6.7 m/s, 15 mph) Southeast (140°)
Visibility6.2 mi. (10 km)
Clouds Few clouds 3,400 ft. (1,036 m)
Scattered clouds 5,000 ft. (1,524 m)
Ceiling: Overcast 16,000 ft. (4,877 m)
Altimeter29.77 in.Hg (1008 mB)
Relative humidity84 %
Density altitude2,096 ft. (639 m)
Remarks Fully automated report
No significant changes expected in the next two hours
Flight conditions Visual Meteorological Conditions
Raw dataRJFF 142000Z AUTO 14013KT 9999 FEW034 SCT050 OVC160 28/25 Q1008 NOSIG
An error has occurred. This application may no longer respond until reloaded. Reload 🗙